sensor_id;sensor_type;location;lat;lon;timestamp;temperature;humidity
51765;DHT22;37835;53.256;6.456;2022-08-03T00:01:52;19.50;99.90
51765;DHT22;37835;53.256;6.456;2022-08-03T00:04:18;19.50;99.90
51765;DHT22;37835;53.256;6.456;2022-08-03T00:06:44;19.50;99.90
51765;DHT22;37835;53.256;6.456;2022-08-03T00:09:09;19.50;99.90
51765;DHT22;37835;53.256;6.456;2022-08-03T00:11:35;19.50;99.90
51765;DHT22;37835;53.256;6.456;2022-08-03T00:14:02;19.40;99.90
51765;DHT22;37835;53.256;6.456;2022-08-03T00:16:28;19.40;99.90
51765;DHT22;37835;53.256;6.456;2022-08-03T00:18:53;19.40;99.90
51765;DHT22;37835;53.256;6.456;2022-08-03T00:21:19;19.30;99.90
51765;DHT22;37835;53.256;6.456;2022-08-03T00:23:44;19.30;99.90
51765;DHT22;37835;53.256;6.456;2022-08-03T00:26:10;19.30;99.90
51765;DHT22;37835;53.256;6.456;2022-08-03T00:28:36;19.30;99.90
51765;DHT22;37835;53.256;6.456;2022-08-03T00:31:01;19.30;99.90
51765;DHT22;37835;53.256;6.456;2022-08-03T00:33:27;19.30;99.90
51765;DHT22;37835;53.256;6.456;2022-08-03T00:35:52;19.30;99.90
51765;DHT22;37835;53.256;6.456;2022-08-03T00:38:18;19.30;99.90
51765;DHT22;37835;53.256;6.456;2022-08-03T00:40:44;19.30;99.90
51765;DHT22;37835;53.256;6.456;2022-08-03T00:43:11;19.30;99.90
51765;DHT22;37835;53.256;6.456;2022-08-03T00:45:39;19.20;99.90
51765;DHT22;37835;53.256;6.456;2022-08-03T00:48:06;19.20;99.90
51765;DHT22;37835;53.256;6.456;2022-08-03T00:50:34;19.20;99.90
51765;DHT22;37835;53.256;6.456;2022-08-03T00:53:03;19.20;99.90
51765;DHT22;37835;53.256;6.456;2022-08-03T00:55:29;19.20;99.90
51765;DHT22;37835;53.256;6.456;2022-08-03T00:57:55;19.20;99.90
51765;DHT22;37835;53.256;6.456;2022-08-03T01:00:25;19.20;99.90
51765;DHT22;37835;53.256;6.456;2022-08-03T01:02:52;19.20;99.90
51765;DHT22;37835;53.256;6.456;2022-08-03T01:05:21;19.20;99.90
51765;DHT22;37835;53.256;6.456;2022-08-03T01:11:11;19.20;99.90
51765;DHT22;37835;53.256;6.456;2022-08-03T01:13:56;19.10;99.90
51765;DHT22;37835;53.256;6.456;2022-08-03T01:16:51;19.20;99.90
51765;DHT22;37835;53.256;6.456;2022-08-03T01:19:44;19.10;99.90
51765;DHT22;37835;53.256;6.456;2022-08-03T01:25:18;19.10;99.90
51765;DHT22;37835;53.256;6.456;2022-08-03T01:30:26;19.10;99.90
51765;DHT22;37835;53.256;6.456;2022-08-03T01:32:59;19.10;99.90
51765;DHT22;37835;53.256;6.456;2022-08-03T01:35:59;19.10;99.90
51765;DHT22;37835;53.256;6.456;2022-08-03T01:38:28;19.00;99.90
51765;DHT22;37835;53.256;6.456;2022-08-03T01:40:56;19.00;99.90
51765;DHT22;37835;53.256;6.456;2022-08-03T01:43:27;19.00;99.90
51765;DHT22;37835;53.256;6.456;2022-08-03T01:45:55;19.00;99.90
51765;DHT22;37835;53.256;6.456;2022-08-03T01:48:22;19.00;99.90
51765;DHT22;37835;53.256;6.456;2022-08-03T01:50:49;19.00;99.90
51765;DHT22;37835;53.256;6.456;2022-08-03T01:53:16;18.90;99.90
51765;DHT22;37835;53.256;6.456;2022-08-03T01:55:44;19.00;99.90
51765;DHT22;37835;53.256;6.456;2022-08-03T01:58:12;18.90;99.90
51765;DHT22;37835;53.256;6.456;2022-08-03T02:00:40;18.90;99.90
51765;DHT22;37835;53.256;6.456;2022-08-03T02:03:06;18.90;99.90
51765;DHT22;37835;53.256;6.456;2022-08-03T02:05:33;18.90;99.90
51765;DHT22;37835;53.256;6.456;2022-08-03T02:08:01;18.90;99.90
51765;DHT22;37835;53.256;6.456;2022-08-03T02:10:28;18.90;99.90
51765;DHT22;37835;53.256;6.456;2022-08-03T02:12:57;18.90;99.90
51765;DHT22;37835;53.256;6.456;2022-08-03T02:15:23;18.80;99.90
51765;DHT22;37835;53.256;6.456;2022-08-03T02:17:49;18.80;99.90
51765;DHT22;37835;53.256;6.456;2022-08-03T02:20:16;18.80;99.90
51765;DHT22;37835;53.256;6.456;2022-08-03T02:22:43;18.80;99.90
51765;DHT22;37835;53.256;6.456;2022-08-03T02:25:10;18.80;99.90
51765;DHT22;37835;53.256;6.456;2022-08-03T02:27:40;18.80;99.90
51765;DHT22;37835;53.256;6.456;2022-08-03T02:30:09;18.80;99.90
51765;DHT22;37835;53.256;6.456;2022-08-03T02:32:37;18.80;99.90
51765;DHT22;37835;53.256;6.456;2022-08-03T02:35:05;18.80;99.90
51765;DHT22;37835;53.256;6.456;2022-08-03T02:37:39;18.70;99.90
51765;DHT22;37835;53.256;6.456;2022-08-03T02:40:07;18.70;99.90
51765;DHT22;37835;53.256;6.456;2022-08-03T02:42:34;18.70;99.90
51765;DHT22;37835;53.256;6.456;2022-08-03T02:45:04;18.70;99.90
51765;DHT22;37835;53.256;6.456;2022-08-03T02:47:31;18.70;99.90
51765;DHT22;37835;53.256;6.456;2022-08-03T02:49:59;18.60;99.90
51765;DHT22;37835;53.256;6.456;2022-08-03T02:52:27;18.70;99.90
51765;DHT22;37835;53.256;6.456;2022-08-03T02:54:58;18.60;99.90
51765;DHT22;37835;53.256;6.456;2022-08-03T02:57:26;18.60;99.90
51765;DHT22;37835;53.256;6.456;2022-08-03T02:59:53;18.60;99.90
51765;DHT22;37835;53.256;6.456;2022-08-03T03:02:20;18.60;99.90
51765;DHT22;37835;53.256;6.456;2022-08-03T03:04:49;18.60;99.90
51765;DHT22;37835;53.256;6.456;2022-08-03T03:07:16;18.60;99.90
51765;DHT22;37835;53.256;6.456;2022-08-03T03:09:42;18.60;99.90
51765;DHT22;37835;53.256;6.456;2022-08-03T03:12:09;18.60;99.90
51765;DHT22;37835;53.256;6.456;2022-08-03T03:14:36;18.60;99.90
51765;DHT22;37835;53.256;6.456;2022-08-03T03:17:02;18.50;99.90
51765;DHT22;37835;53.256;6.456;2022-08-03T03:19:32;18.50;99.90
51765;DHT22;37835;53.256;6.456;2022-08-03T03:22:02;18.60;99.90
51765;DHT22;37835;53.256;6.456;2022-08-03T03:24:29;18.50;99.90
51765;DHT22;37835;53.256;6.456;2022-08-03T03:26:55;18.50;99.90
51765;DHT22;37835;53.256;6.456;2022-08-03T03:29:22;18.50;99.90
51765;DHT22;37835;53.256;6.456;2022-08-03T03:31:48;18.50;99.90
51765;DHT22;37835;53.256;6.456;2022-08-03T03:34:14;18.50;99.90
51765;DHT22;37835;53.256;6.456;2022-08-03T03:36:40;18.50;99.90
51765;DHT22;37835;53.256;6.456;2022-08-03T03:39:06;18.50;99.90
51765;DHT22;37835;53.256;6.456;2022-08-03T03:41:31;18.40;99.90
51765;DHT22;37835;53.256;6.456;2022-08-03T03:43:58;18.20;99.90
51765;DHT22;37835;53.256;6.456;2022-08-03T03:46:24;18.40;99.90
51765;DHT22;37835;53.256;6.456;2022-08-03T03:48:50;18.40;99.90
51765;DHT22;37835;53.256;6.456;2022-08-03T03:51:15;18.40;99.90
51765;DHT22;37835;53.256;6.456;2022-08-03T03:53:55;18.30;99.90
51765;DHT22;37835;53.256;6.456;2022-08-03T03:56:21;18.30;99.90
51765;DHT22;37835;53.256;6.456;2022-08-03T03:58:47;18.20;99.90
51765;DHT22;37835;53.256;6.456;2022-08-03T04:01:13;18.30;99.90
51765;DHT22;37835;53.256;6.456;2022-08-03T04:03:38;18.20;99.90
51765;DHT22;37835;53.256;6.456;2022-08-03T04:06:04;18.30;99.90
51765;DHT22;37835;53.256;6.456;2022-08-03T04:08:48;18.30;99.90
51765;DHT22;37835;53.256;6.456;2022-08-03T04:11:51;18.30;99.90
51765;DHT22;37835;53.256;6.456;2022-08-03T04:14:27;18.30;99.90
51765;DHT22;37835;53.256;6.456;2022-08-03T04:16:58;18.30;99.90
51765;DHT22;37835;53.256;6.456;2022-08-03T04:19:44;18.20;99.90
51765;DHT22;37835;53.256;6.456;2022-08-03T04:22:14;18.30;99.90
51765;DHT22;37835;53.256;6.456;2022-08-03T04:24:50;18.20;99.90
51765;DHT22;37835;53.256;6.456;2022-08-03T04:27:20;18.20;99.90
51765;DHT22;37835;53.256;6.456;2022-08-03T04:29:48;18.20;99.90
51765;DHT22;37835;53.256;6.456;2022-08-03T04:32:16;18.20;99.90
51765;DHT22;37835;53.256;6.456;2022-08-03T04:34:42;18.20;99.90
51765;DHT22;37835;53.256;6.456;2022-08-03T04:37:13;18.20;99.90
51765;DHT22;37835;53.256;6.456;2022-08-03T04:39:41;18.20;99.90
51765;DHT22;37835;53.256;6.456;2022-08-03T04:42:11;18.20;99.90
51765;DHT22;37835;53.256;6.456;2022-08-03T04:44:40;18.30;99.90
51765;DHT22;37835;53.256;6.456;2022-08-03T04:47:07;18.30;99.90
51765;DHT22;37835;53.256;6.456;2022-08-03T04:49:35;18.30;99.90
51765;DHT22;37835;53.256;6.456;2022-08-03T04:52:01;18.40;99.90
51765;DHT22;37835;53.256;6.456;2022-08-03T04:54:27;18.40;99.90
51765;DHT22;37835;53.256;6.456;2022-08-03T04:56:53;18.50;99.90
51765;DHT22;37835;53.256;6.456;2022-08-03T04:59:19;18.50;99.90
51765;DHT22;37835;53.256;6.456;2022-08-03T05:01:44;18.50;99.90
51765;DHT22;37835;53.256;6.456;2022-08-03T05:04:10;18.60;99.90
51765;DHT22;37835;53.256;6.456;2022-08-03T05:06:35;18.60;99.90
51765;DHT22;37835;53.256;6.456;2022-08-03T05:09:02;18.70;99.90
51765;DHT22;37835;53.256;6.456;2022-08-03T05:11:28;18.70;99.90
51765;DHT22;37835;53.256;6.456;2022-08-03T05:13:54;18.70;99.90
51765;DHT22;37835;53.256;6.456;2022-08-03T05:16:20;18.80;99.90
51765;DHT22;37835;53.256;6.456;2022-08-03T05:18:45;18.80;99.90
51765;DHT22;37835;53.256;6.456;2022-08-03T05:21:12;18.90;99.90
51765;DHT22;37835;53.256;6.456;2022-08-03T05:23:39;18.90;99.90
51765;DHT22;37835;53.256;6.456;2022-08-03T05:26:05;19.00;99.90
51765;DHT22;37835;53.256;6.456;2022-08-03T05:28:31;19.00;99.90
51765;DHT22;37835;53.256;6.456;2022-08-03T05:30:56;19.10;99.90
51765;DHT22;37835;53.256;6.456;2022-08-03T05:33:22;19.10;99.90
51765;DHT22;37835;53.256;6.456;2022-08-03T05:35:47;19.10;99.90
51765;DHT22;37835;53.256;6.456;2022-08-03T05:38:13;19.20;99.90
51765;DHT22;37835;53.256;6.456;2022-08-03T05:40:39;19.20;99.90
51765;DHT22;37835;53.256;6.456;2022-08-03T05:43:04;19.30;99.90
51765;DHT22;37835;53.256;6.456;2022-08-03T05:45:30;19.30;99.90
51765;DHT22;37835;53.256;6.456;2022-08-03T05:47:55;19.30;99.90
51765;DHT22;37835;53.256;6.456;2022-08-03T05:50:21;19.40;99.90
51765;DHT22;37835;53.256;6.456;2022-08-03T05:52:47;19.40;99.90
51765;DHT22;37835;53.256;6.456;2022-08-03T05:55:13;19.50;99.90
51765;DHT22;37835;53.256;6.456;2022-08-03T05:57:39;19.60;99.90
51765;DHT22;37835;53.256;6.456;2022-08-03T06:00:09;19.60;99.90
51765;DHT22;37835;53.256;6.456;2022-08-03T06:02:36;19.70;99.90
51765;DHT22;37835;53.256;6.456;2022-08-03T06:05:02;19.70;99.90
51765;DHT22;37835;53.256;6.456;2022-08-03T06:07:28;19.80;99.90
51765;DHT22;37835;53.256;6.456;2022-08-03T06:09:53;19.80;99.90
51765;DHT22;37835;53.256;6.456;2022-08-03T06:12:19;19.80;99.90
51765;DHT22;37835;53.256;6.456;2022-08-03T06:14:44;19.90;99.90
51765;DHT22;37835;53.256;6.456;2022-08-03T06:17:10;19.90;99.90
51765;DHT22;37835;53.256;6.456;2022-08-03T06:19:36;20.00;99.90
51765;DHT22;37835;53.256;6.456;2022-08-03T06:22:01;20.10;99.90
51765;DHT22;37835;53.256;6.456;2022-08-03T06:24:27;20.10;99.90
51765;DHT22;37835;53.256;6.456;2022-08-03T06:26:53;20.20;99.90
51765;DHT22;37835;53.256;6.456;2022-08-03T06:29:18;20.20;99.90
51765;DHT22;37835;53.256;6.456;2022-08-03T06:31:44;20.30;99.90
51765;DHT22;37835;53.256;6.456;2022-08-03T06:34:10;20.30;99.90
51765;DHT22;37835;53.256;6.456;2022-08-03T06:36:35;20.30;99.90
51765;DHT22;37835;53.256;6.456;2022-08-03T06:39:02;20.40;99.90
51765;DHT22;37835;53.256;6.456;2022-08-03T06:41:28;20.50;99.90
51765;DHT22;37835;53.256;6.456;2022-08-03T06:43:54;20.50;99.90
51765;DHT22;37835;53.256;6.456;2022-08-03T06:46:20;20.50;99.90
51765;DHT22;37835;53.256;6.456;2022-08-03T06:48:46;20.60;99.90
51765;DHT22;37835;53.256;6.456;2022-08-03T06:51:12;20.60;99.90
51765;DHT22;37835;53.256;6.456;2022-08-03T06:53:38;20.70;99.90
51765;DHT22;37835;53.256;6.456;2022-08-03T06:56:04;20.70;99.90
51765;DHT22;37835;53.256;6.456;2022-08-03T06:58:30;20.80;99.90
51765;DHT22;37835;53.256;6.456;2022-08-03T07:00:56;20.80;99.90
51765;DHT22;37835;53.256;6.456;2022-08-03T07:03:21;20.90;99.90
51765;DHT22;37835;53.256;6.456;2022-08-03T07:05:47;20.90;99.90
51765;DHT22;37835;53.256;6.456;2022-08-03T07:08:13;21.00;99.90
51765;DHT22;37835;53.256;6.456;2022-08-03T07:10:39;21.00;99.90
51765;DHT22;37835;53.256;6.456;2022-08-03T07:13:05;21.10;99.90
51765;DHT22;37835;53.256;6.456;2022-08-03T07:15:31;21.10;99.90
51765;DHT22;37835;53.256;6.456;2022-08-03T07:17:56;21.20;99.90
51765;DHT22;37835;53.256;6.456;2022-08-03T07:20:22;21.20;99.90
51765;DHT22;37835;53.256;6.456;2022-08-03T07:22:48;21.30;99.90
51765;DHT22;37835;53.256;6.456;2022-08-03T07:25:13;21.30;99.90
51765;DHT22;37835;53.256;6.456;2022-08-03T07:27:43;21.40;99.90
51765;DHT22;37835;53.256;6.456;2022-08-03T07:30:10;21.50;99.90
51765;DHT22;37835;53.256;6.456;2022-08-03T07:32:36;21.50;99.90
51765;DHT22;37835;53.256;6.456;2022-08-03T07:35:03;21.60;99.90
51765;DHT22;37835;53.256;6.456;2022-08-03T07:37:29;21.60;99.90
51765;DHT22;37835;53.256;6.456;2022-08-03T07:39:55;21.70;99.90
51765;DHT22;37835;53.256;6.456;2022-08-03T07:42:21;21.70;99.90
51765;DHT22;37835;53.256;6.456;2022-08-03T07:44:48;21.80;99.90
51765;DHT22;37835;53.256;6.456;2022-08-03T07:47:21;21.80;99.90
51765;DHT22;37835;53.256;6.456;2022-08-03T07:49:47;21.90;99.90
51765;DHT22;37835;53.256;6.456;2022-08-03T07:52:13;22.00;99.90
51765;DHT22;37835;53.256;6.456;2022-08-03T07:54:57;22.00;99.90
51765;DHT22;37835;53.256;6.456;2022-08-03T07:57:23;22.10;99.90
51765;DHT22;37835;53.256;6.456;2022-08-03T07:59:48;22.20;99.90
51765;DHT22;37835;53.256;6.456;2022-08-03T08:02:14;22.20;99.90
51765;DHT22;37835;53.256;6.456;2022-08-03T08:04:42;22.30;99.90
51765;DHT22;37835;53.256;6.456;2022-08-03T08:07:07;22.50;99.90
51765;DHT22;37835;53.256;6.456;2022-08-03T08:09:33;22.40;99.90
51765;DHT22;37835;53.256;6.456;2022-08-03T08:11:59;22.50;99.90
51765;DHT22;37835;53.256;6.456;2022-08-03T08:14:25;22.60;99.90
51765;DHT22;37835;53.256;6.456;2022-08-03T08:16:50;22.60;99.90
51765;DHT22;37835;53.256;6.456;2022-08-03T08:19:16;22.70;99.90
51765;DHT22;37835;53.256;6.456;2022-08-03T08:21:43;22.80;99.90
51765;DHT22;37835;53.256;6.456;2022-08-03T08:24:08;22.90;99.90
51765;DHT22;37835;53.256;6.456;2022-08-03T08:26:34;23.00;99.90
51765;DHT22;37835;53.256;6.456;2022-08-03T08:29:00;23.00;99.90
51765;DHT22;37835;53.256;6.456;2022-08-03T08:31:26;23.00;99.90
51765;DHT22;37835;53.256;6.456;2022-08-03T08:33:51;23.10;99.90
51765;DHT22;37835;53.256;6.456;2022-08-03T08:36:17;23.10;99.90
51765;DHT22;37835;53.256;6.456;2022-08-03T08:38:43;23.20;99.90
51765;DHT22;37835;53.256;6.456;2022-08-03T08:41:10;23.20;99.90
51765;DHT22;37835;53.256;6.456;2022-08-03T08:43:37;23.30;99.90
51765;DHT22;37835;53.256;6.456;2022-08-03T08:46:02;23.30;99.90
51765;DHT22;37835;53.256;6.456;2022-08-03T08:48:30;23.40;99.90
51765;DHT22;37835;53.256;6.456;2022-08-03T08:50:56;23.50;99.90
51765;DHT22;37835;53.256;6.456;2022-08-03T08:53:25;23.50;99.90
51765;DHT22;37835;53.256;6.456;2022-08-03T08:55:54;23.50;99.90
51765;DHT22;37835;53.256;6.456;2022-08-03T08:58:21;23.40;99.90
51765;DHT22;37835;53.256;6.456;2022-08-03T09:00:47;23.40;99.90
51765;DHT22;37835;53.256;6.456;2022-08-03T09:03:13;23.40;99.90
51765;DHT22;37835;53.256;6.456;2022-08-03T09:05:42;23.50;99.90
51765;DHT22;37835;53.256;6.456;2022-08-03T09:08:08;23.50;99.90
51765;DHT22;37835;53.256;6.456;2022-08-03T09:10:34;23.50;99.90
51765;DHT22;37835;53.256;6.456;2022-08-03T09:13:00;23.50;99.90
51765;DHT22;37835;53.256;6.456;2022-08-03T09:15:30;23.50;99.90
51765;DHT22;37835;53.256;6.456;2022-08-03T09:17:58;23.60;99.90
51765;DHT22;37835;53.256;6.456;2022-08-03T09:20:26;23.70;99.90
51765;DHT22;37835;53.256;6.456;2022-08-03T09:22:58;23.70;99.90
51765;DHT22;37835;53.256;6.456;2022-08-03T09:25:30;23.80;99.90
51765;DHT22;37835;53.256;6.456;2022-08-03T09:28:13;23.90;99.90
51765;DHT22;37835;53.256;6.456;2022-08-03T09:30:40;23.90;99.90
51765;DHT22;37835;53.256;6.456;2022-08-03T09:33:08;24.00;99.90
51765;DHT22;37835;53.256;6.456;2022-08-03T09:35:42;24.00;99.90
51765;DHT22;37835;53.256;6.456;2022-08-03T09:38:16;24.10;99.90
51765;DHT22;37835;53.256;6.456;2022-08-03T09:40:44;24.20;99.90
51765;DHT22;37835;53.256;6.456;2022-08-03T09:43:10;24.20;99.90
51765;DHT22;37835;53.256;6.456;2022-08-03T09:45:37;24.30;99.90
51765;DHT22;37835;53.256;6.456;2022-08-03T09:48:23;24.40;99.90
51765;DHT22;37835;53.256;6.456;2022-08-03T09:51:06;24.40;99.90
51765;DHT22;37835;53.256;6.456;2022-08-03T09:53:42;24.40;99.90
51765;DHT22;37835;53.256;6.456;2022-08-03T09:56:08;24.40;99.90
51765;DHT22;37835;53.256;6.456;2022-08-03T09:58:44;24.50;99.90
51765;DHT22;37835;53.256;6.456;2022-08-03T10:01:10;24.50;99.90
51765;DHT22;37835;53.256;6.456;2022-08-03T10:03:38;24.50;99.90
51765;DHT22;37835;53.256;6.456;2022-08-03T10:06:18;24.50;99.90
51765;DHT22;37835;53.256;6.456;2022-08-03T10:08:45;24.60;99.90
51765;DHT22;37835;53.256;6.456;2022-08-03T10:11:10;24.70;99.90
51765;DHT22;37835;53.256;6.456;2022-08-03T10:13:37;24.60;99.90
51765;DHT22;37835;53.256;6.456;2022-08-03T10:16:03;24.70;99.90
51765;DHT22;37835;53.256;6.456;2022-08-03T10:18:29;24.70;99.90
51765;DHT22;37835;53.256;6.456;2022-08-03T10:21:02;24.80;99.90
51765;DHT22;37835;53.256;6.456;2022-08-03T10:23:33;24.90;99.90
51765;DHT22;37835;53.256;6.456;2022-08-03T10:26:02;25.10;99.90
51765;DHT22;37835;53.256;6.456;2022-08-03T10:28:34;25.00;99.90
51765;DHT22;37835;53.256;6.456;2022-08-03T10:31:01;25.10;99.90
51765;DHT22;37835;53.256;6.456;2022-08-03T10:33:31;25.20;99.90
51765;DHT22;37835;53.256;6.456;2022-08-03T10:35:59;25.20;99.90
51765;DHT22;37835;53.256;6.456;2022-08-03T10:38:37;25.30;99.90
51765;DHT22;37835;53.256;6.456;2022-08-03T10:41:05;25.30;99.90
51765;DHT22;37835;53.256;6.456;2022-08-03T10:43:46;25.40;99.90
51765;DHT22;37835;53.256;6.456;2022-08-03T10:46:17;25.40;99.90
51765;DHT22;37835;53.256;6.456;2022-08-03T10:48:45;25.40;99.90
51765;DHT22;37835;53.256;6.456;2022-08-03T10:51:11;25.50;99.90
51765;DHT22;37835;53.256;6.456;2022-08-03T10:53:39;25.50;99.90
51765;DHT22;37835;53.256;6.456;2022-08-03T10:59:17;25.60;99.90
51765;DHT22;37835;53.256;6.456;2022-08-03T11:04:17;25.60;99.90
51765;DHT22;37835;53.256;6.456;2022-08-03T11:06:43;25.60;99.90
51765;DHT22;37835;53.256;6.456;2022-08-03T11:11:39;25.70;99.90
51765;DHT22;37835;53.256;6.456;2022-08-03T11:14:20;25.80;99.90
51765;DHT22;37835;53.256;6.456;2022-08-03T11:16:49;25.80;99.90
51765;DHT22;37835;53.256;6.456;2022-08-03T11:19:19;25.90;99.90
51765;DHT22;37835;53.256;6.456;2022-08-03T11:35:13;26.30;99.90
51765;DHT22;37835;53.256;6.456;2022-08-03T11:46:01;26.50;99.90
51765;DHT22;37835;53.256;6.456;2022-08-03T11:48:41;26.60;99.90
51765;DHT22;37835;53.256;6.456;2022-08-03T11:51:24;26.60;99.90
51765;DHT22;37835;53.256;6.456;2022-08-03T11:53:55;26.70;99.90
51765;DHT22;37835;53.256;6.456;2022-08-03T11:56:21;26.80;99.90
51765;DHT22;37835;53.256;6.456;2022-08-03T11:58:48;26.80;99.90
51765;DHT22;37835;53.256;6.456;2022-08-03T12:01:14;26.80;99.90
51765;DHT22;37835;53.256;6.456;2022-08-03T12:03:43;26.80;99.90
51765;DHT22;37835;53.256;6.456;2022-08-03T12:06:10;26.90;99.90
51765;DHT22;37835;53.256;6.456;2022-08-03T12:08:36;27.00;99.90
51765;DHT22;37835;53.256;6.456;2022-08-03T12:11:04;27.10;99.90
51765;DHT22;37835;53.256;6.456;2022-08-03T12:13:46;27.10;99.90
51765;DHT22;37835;53.256;6.456;2022-08-03T12:16:23;27.20;99.90
51765;DHT22;37835;53.256;6.456;2022-08-03T12:18:59;27.30;99.90
51765;DHT22;37835;53.256;6.456;2022-08-03T12:21:26;27.50;99.90
51765;DHT22;37835;53.256;6.456;2022-08-03T12:23:56;27.40;99.90
51765;DHT22;37835;53.256;6.456;2022-08-03T12:26:24;27.50;99.90
51765;DHT22;37835;53.256;6.456;2022-08-03T12:28:50;27.50;99.90
51765;DHT22;37835;53.256;6.456;2022-08-03T12:31:16;27.50;99.90
51765;DHT22;37835;53.256;6.456;2022-08-03T12:34:02;27.50;99.90
51765;DHT22;37835;53.256;6.456;2022-08-03T12:36:30;27.50;99.90
51765;DHT22;37835;53.256;6.456;2022-08-03T12:39:06;27.40;99.90
51765;DHT22;37835;53.256;6.456;2022-08-03T12:41:37;27.60;99.90
51765;DHT22;37835;53.256;6.456;2022-08-03T12:44:07;27.60;99.90
51765;DHT22;37835;53.256;6.456;2022-08-03T12:46:39;27.60;99.90
51765;DHT22;37835;53.256;6.456;2022-08-03T12:49:09;27.70;99.90
51765;DHT22;37835;53.256;6.456;2022-08-03T12:54:17;27.80;99.90
51765;DHT22;37835;53.256;6.456;2022-08-03T12:57:08;27.80;99.90
51765;DHT22;37835;53.256;6.456;2022-08-03T12:59:35;27.80;99.90
51765;DHT22;37835;53.256;6.456;2022-08-03T13:02:04;27.70;99.90
51765;DHT22;37835;53.256;6.456;2022-08-03T13:04:32;27.80;99.90
51765;DHT22;37835;53.256;6.456;2022-08-03T13:07:03;27.80;99.90
51765;DHT22;37835;53.256;6.456;2022-08-03T13:09:30;27.80;99.90
51765;DHT22;37835;53.256;6.456;2022-08-03T13:12:06;27.70;99.90
51765;DHT22;37835;53.256;6.456;2022-08-03T13:14:32;27.80;99.90
51765;DHT22;37835;53.256;6.456;2022-08-03T13:16:57;27.80;99.90
51765;DHT22;37835;53.256;6.456;2022-08-03T13:19:23;27.70;99.90
51765;DHT22;37835;53.256;6.456;2022-08-03T13:21:49;27.80;99.90
51765;DHT22;37835;53.256;6.456;2022-08-03T13:24:14;27.80;99.90
51765;DHT22;37835;53.256;6.456;2022-08-03T13:26:40;27.90;99.90
51765;DHT22;37835;53.256;6.456;2022-08-03T13:29:06;28.00;99.90
51765;DHT22;37835;53.256;6.456;2022-08-03T13:31:31;28.00;99.90
51765;DHT22;37835;53.256;6.456;2022-08-03T13:33:57;28.00;99.90
51765;DHT22;37835;53.256;6.456;2022-08-03T13:36:22;28.10;99.90
51765;DHT22;37835;53.256;6.456;2022-08-03T13:38:49;28.00;99.90
51765;DHT22;37835;53.256;6.456;2022-08-03T13:41:15;28.20;99.90
51765;DHT22;37835;53.256;6.456;2022-08-03T13:43:40;28.20;99.90
51765;DHT22;37835;53.256;6.456;2022-08-03T13:46:06;28.20;99.90
51765;DHT22;37835;53.256;6.456;2022-08-03T13:48:32;28.20;99.90
51765;DHT22;37835;53.256;6.456;2022-08-03T13:50:57;28.30;99.90
51765;DHT22;37835;53.256;6.456;2022-08-03T13:53:23;28.30;99.90
51765;DHT22;37835;53.256;6.456;2022-08-03T13:55:48;28.30;99.90
51765;DHT22;37835;53.256;6.456;2022-08-03T13:58:14;28.30;99.90
51765;DHT22;37835;53.256;6.456;2022-08-03T14:00:40;28.30;99.90
51765;DHT22;37835;53.256;6.456;2022-08-03T14:03:05;28.30;99.90
51765;DHT22;37835;53.256;6.456;2022-08-03T14:05:32;28.30;99.90
51765;DHT22;37835;53.256;6.456;2022-08-03T14:07:58;28.30;99.90
51765;DHT22;37835;53.256;6.456;2022-08-03T14:10:25;28.30;99.90
51765;DHT22;37835;53.256;6.456;2022-08-03T14:12:51;28.30;99.90
51765;DHT22;37835;53.256;6.456;2022-08-03T14:15:16;28.30;99.90
51765;DHT22;37835;53.256;6.456;2022-08-03T14:17:42;28.40;99.90
51765;DHT22;37835;53.256;6.456;2022-08-03T14:20:08;28.40;99.90
51765;DHT22;37835;53.256;6.456;2022-08-03T14:22:34;28.50;99.90
51765;DHT22;37835;53.256;6.456;2022-08-03T14:24:59;28.50;99.90
51765;DHT22;37835;53.256;6.456;2022-08-03T14:27:25;28.50;99.90
51765;DHT22;37835;53.256;6.456;2022-08-03T14:29:51;28.60;99.90
51765;DHT22;37835;53.256;6.456;2022-08-03T14:32:16;28.60;99.90
51765;DHT22;37835;53.256;6.456;2022-08-03T14:34:42;28.70;99.90
51765;DHT22;37835;53.256;6.456;2022-08-03T14:37:07;28.70;99.90
51765;DHT22;37835;53.256;6.456;2022-08-03T14:39:33;28.70;99.90
51765;DHT22;37835;53.256;6.456;2022-08-03T14:41:59;28.60;99.90
51765;DHT22;37835;53.256;6.456;2022-08-03T14:44:24;28.70;99.90
51765;DHT22;37835;53.256;6.456;2022-08-03T14:46:50;28.70;99.90
51765;DHT22;37835;53.256;6.456;2022-08-03T14:49:15;28.70;99.90
51765;DHT22;37835;53.256;6.456;2022-08-03T14:51:41;28.70;99.90
51765;DHT22;37835;53.256;6.456;2022-08-03T14:54:07;28.70;99.90
51765;DHT22;37835;53.256;6.456;2022-08-03T14:56:32;28.60;99.90
51765;DHT22;37835;53.256;6.456;2022-08-03T14:58:58;28.60;99.90
51765;DHT22;37835;53.256;6.456;2022-08-03T15:01:23;28.60;99.90
51765;DHT22;37835;53.256;6.456;2022-08-03T15:03:49;28.60;99.90
51765;DHT22;37835;53.256;6.456;2022-08-03T15:06:14;28.60;99.90
51765;DHT22;37835;53.256;6.456;2022-08-03T15:08:40;28.60;99.90
51765;DHT22;37835;53.256;6.456;2022-08-03T15:11:05;28.70;99.90
51765;DHT22;37835;53.256;6.456;2022-08-03T15:13:31;28.70;99.90
51765;DHT22;37835;53.256;6.456;2022-08-03T15:15:57;28.70;99.90
51765;DHT22;37835;53.256;6.456;2022-08-03T15:18:22;28.80;99.90
51765;DHT22;37835;53.256;6.456;2022-08-03T15:20:48;28.80;99.90
51765;DHT22;37835;53.256;6.456;2022-08-03T15:23:15;28.90;99.90
51765;DHT22;37835;53.256;6.456;2022-08-03T15:25:42;28.90;99.90
51765;DHT22;37835;53.256;6.456;2022-08-03T15:28:08;28.90;99.90
51765;DHT22;37835;53.256;6.456;2022-08-03T15:30:34;28.90;99.90
51765;DHT22;37835;53.256;6.456;2022-08-03T15:33:04;29.00;99.90
51765;DHT22;37835;53.256;6.456;2022-08-03T15:35:29;29.00;99.90
51765;DHT22;37835;53.256;6.456;2022-08-03T15:37:55;29.20;99.90
51765;DHT22;37835;53.256;6.456;2022-08-03T15:40:20;29.20;99.90
51765;DHT22;37835;53.256;6.456;2022-08-03T15:42:46;29.20;99.90
51765;DHT22;37835;53.256;6.456;2022-08-03T15:45:12;29.30;99.90
51765;DHT22;37835;53.256;6.456;2022-08-03T15:47:37;29.40;99.90
51765;DHT22;37835;53.256;6.456;2022-08-03T15:50:03;29.40;99.90
51765;DHT22;37835;53.256;6.456;2022-08-03T15:52:29;29.40;99.90
51765;DHT22;37835;53.256;6.456;2022-08-03T15:54:54;29.50;99.90
51765;DHT22;37835;53.256;6.456;2022-08-03T15:57:20;29.50;99.90
51765;DHT22;37835;53.256;6.456;2022-08-03T15:59:46;29.60;99.90
51765;DHT22;37835;53.256;6.456;2022-08-03T16:02:12;29.60;99.90
51765;DHT22;37835;53.256;6.456;2022-08-03T16:04:38;29.70;99.90
51765;DHT22;37835;53.256;6.456;2022-08-03T16:07:03;29.60;99.90
51765;DHT22;37835;53.256;6.456;2022-08-03T16:09:29;29.70;99.90
51765;DHT22;37835;53.256;6.456;2022-08-03T16:11:54;29.70;99.90
51765;DHT22;37835;53.256;6.456;2022-08-03T16:14:20;29.70;99.90
51765;DHT22;37835;53.256;6.456;2022-08-03T16:16:46;29.70;99.90